Time;durP1;ratioP1;P1;durP2;ratioP2;P2;SDS_P1;SDS_P2;PMS_P1;PMS_P2;Temp;Humidity;BMP_temperature;BMP_pressure;BME280_temperature;BME280_humidity;BME280_pressure;Samples;Min_cycle;Max_cycle;Signal;HPM_P1;HPM_P2
2022/10/30 00:00:22;;;;;;;15.97;8.60;;;14.20;99.90;;;;;;5054304;28;20230;-68
2022/10/30 00:02:49;;;;;;;15.73;8.57;;;14.20;99.90;;;;;;5054034;28;20197;-69
2022/10/30 00:05:17;;;;;;;16.43;8.87;;;14.20;99.90;;;;;;5054622;28;20208;-70
2022/10/30 00:07:45;;;;;;;14.30;9.27;;;14.20;99.90;;;;;;5054167;28;20251;-68
2022/10/30 00:10:12;;;;;;;20.53;8.73;;;14.20;99.90;;;;;;5054183;28;20253;-68
2022/10/30 00:12:39;;;;;;;17.80;8.73;;;14.20;99.90;;;;;;5053536;28;20205;-68
2022/10/30 00:15:06;;;;;;;15.50;8.70;;;14.20;99.90;;;;;;5054112;28;20216;-68
2022/10/30 00:17:33;;;;;;;17.33;9.07;;;14.20;99.90;;;;;;5048774;28;20197;-68
2022/10/30 00:20:00;;;;;;;15.80;8.33;;;14.20;99.90;;;;;;5052101;28;20201;-68
2022/10/30 00:22:27;;;;;;;14.00;8.03;;;14.20;99.90;;;;;;5051279;28;20213;-68
2022/10/30 00:24:55;;;;;;;17.70;8.80;;;14.20;99.90;;;;;;5052617;28;20232;-68
2022/10/30 00:27:22;;;;;;;13.70;8.40;;;14.20;99.90;;;;;;5054349;28;20212;-68
2022/10/30 00:29:49;;;;;;;17.97;9.13;;;14.20;99.90;;;;;;5053779;28;20225;-69
2022/10/30 00:32:15;;;;;;;17.70;8.17;;;14.20;99.90;;;;;;5054143;28;20205;-68
2022/10/30 00:34:42;;;;;;;19.63;8.63;;;14.20;99.90;;;;;;5052320;28;20662;-67
2022/10/30 00:37:09;;;;;;;16.60;8.20;;;14.10;99.90;;;;;;5054205;28;20672;-68
2022/10/30 00:39:36;;;;;;;13.53;8.27;;;14.10;99.90;;;;;;5053941;28;20201;-68
2022/10/30 00:42:04;;;;;;;14.93;8.50;;;14.20;99.90;;;;;;5052066;28;20574;-68
2022/10/30 00:44:42;;;;;;;15.50;8.43;;;14.20;99.90;;;;;;5051566;28;20201;-68
2022/10/30 00:47:16;;;;;;;17.97;8.47;;;14.20;99.90;;;;;;5053542;28;20241;-67
2022/10/30 00:49:51;;;;;;;14.60;8.50;;;14.10;99.90;;;;;;5053781;28;20217;-68
2022/10/30 00:52:19;;;;;;;14.23;8.07;;;14.10;99.90;;;;;;5053432;28;20193;-68
2022/10/30 00:54:46;;;;;;;21.07;8.20;;;14.10;99.90;;;;;;5050877;28;20224;-68
2022/10/30 00:57:14;;;;;;;14.97;7.80;;;14.10;99.90;;;;;;5053395;28;20570;-68
2022/10/30 00:59:41;;;;;;;15.50;8.07;;;14.10;99.90;;;;;;5050152;28;20570;-68
2022/10/30 01:02:08;;;;;;;15.53;7.90;;;14.10;99.90;;;;;;5053030;28;20255;-68
2022/10/30 01:04:39;;;;;;;16.57;7.90;;;14.00;99.90;;;;;;5052803;28;20205;-68
2022/10/30 01:07:10;;;;;;;14.73;8.13;;;14.00;99.90;;;;;;5050348;28;20208;-68
2022/10/30 01:09:38;;;;;;;13.30;7.37;;;14.00;99.90;;;;;;5052420;28;20213;-68
2022/10/30 01:12:06;;;;;;;15.40;7.93;;;14.00;99.90;;;;;;5053059;28;20634;-68
2022/10/30 01:14:35;;;;;;;14.77;7.73;;;14.00;99.90;;;;;;5052766;28;20205;-67
2022/10/30 01:17:18;;;;;;;11.33;7.50;;;14.10;99.90;;;;;;5052831;28;20205;-67
2022/10/30 01:19:56;;;;;;;10.40;7.00;;;14.00;99.90;;;;;;5051873;28;20587;-68
2022/10/30 01:22:39;;;;;;;13.03;7.63;;;14.00;99.90;;;;;;5052658;28;20193;-68
2022/10/30 01:25:18;;;;;;;20.13;8.03;;;14.10;99.90;;;;;;5052946;28;20194;-68
2022/10/30 01:27:54;;;;;;;15.03;7.10;;;14.00;99.90;;;;;;5052474;28;20284;-68
2022/10/30 01:30:38;;;;;;;13.30;7.00;;;14.00;99.90;;;;;;5051869;28;20209;-68
2022/10/30 01:33:16;;;;;;;13.77;7.20;;;14.00;99.90;;;;;;5052486;28;20186;-67
2022/10/30 01:35:48;;;;;;;14.67;7.50;;;14.00;99.90;;;;;;5051611;28;20205;-69
2022/10/30 01:38:21;;;;;;;17.23;7.00;;;14.00;99.90;;;;;;5052735;28;20277;-68
2022/10/30 01:40:48;;;;;;;14.13;6.73;;;14.00;99.90;;;;;;5052344;28;20189;-68
2022/10/30 01:43:15;;;;;;;16.20;7.23;;;14.00;99.90;;;;;;5052633;28;20211;-68
2022/10/30 01:45:58;;;;;;;13.20;7.33;;;14.00;99.90;;;;;;5051127;28;20254;-68
2022/10/30 01:48:45;;;;;;;12.47;6.83;;;14.00;99.90;;;;;;5048971;28;20237;-67
2022/10/30 01:51:21;;;;;;;14.70;7.10;;;14.00;99.90;;;;;;5050313;28;20197;-68
2022/10/30 01:53:53;;;;;;;10.97;6.53;;;14.00;99.90;;;;;;5051874;28;20205;-68
2022/10/30 01:56:28;;;;;;;16.13;7.47;;;14.00;99.90;;;;;;5052293;28;20185;-68
2022/10/30 01:59:02;;;;;;;14.60;7.00;;;14.00;99.90;;;;;;5052150;28;20201;-68
2022/10/30 02:01:34;;;;;;;16.17;7.43;;;13.90;99.90;;;;;;5051880;28;20290;-68
2022/10/30 02:04:01;;;;;;;13.80;6.90;;;13.90;99.90;;;;;;5049967;28;20237;-68
2022/10/30 02:06:28;;;;;;;14.73;7.20;;;13.90;99.90;;;;;;5051823;28;20205;-69
2022/10/30 02:08:56;;;;;;;12.33;6.30;;;13.90;99.90;;;;;;5052260;28;20221;-68
2022/10/30 02:11:23;;;;;;;12.57;6.93;;;13.90;99.90;;;;;;5051736;28;20261;-68
2022/10/30 02:13:51;;;;;;;12.67;6.80;;;13.90;99.90;;;;;;5051952;28;20276;-68
2022/10/30 02:16:18;;;;;;;12.33;6.30;;;14.00;99.90;;;;;;5051731;28;20209;-69
2022/10/30 02:18:46;;;;;;;13.23;6.63;;;13.90;99.90;;;;;;5050752;28;20210;-69
2022/10/30 02:21:14;;;;;;;11.83;6.80;;;13.90;99.90;;;;;;5051861;28;20209;-67
2022/10/30 02:23:41;;;;;;;13.63;7.43;;;13.90;99.90;;;;;;5051910;28;20681;-67
2022/10/30 02:26:08;;;;;;;13.80;7.03;;;13.90;99.90;;;;;;5052012;28;20205;-68
2022/10/30 02:28:35;;;;;;;12.50;6.67;;;13.90;99.90;;;;;;5051703;28;20212;-68
2022/10/30 02:31:01;;;;;;;12.43;6.73;;;13.90;99.90;;;;;;5051867;28;20241;-68
2022/10/30 02:33:28;;;;;;;11.80;6.70;;;13.90;99.90;;;;;;5048343;28;20224;-68
2022/10/30 02:35:55;;;;;;;13.57;7.40;;;13.90;99.90;;;;;;5048810;28;20376;-68
2022/10/30 02:38:23;;;;;;;10.87;6.33;;;13.90;99.90;;;;;;5049616;28;20212;-68
2022/10/30 02:40:50;;;;;;;9.87;6.50;;;13.80;99.90;;;;;;5051953;28;20209;-68
2022/10/30 02:43:17;;;;;;;12.77;6.43;;;13.80;99.90;;;;;;5051122;28;20206;-68
2022/10/30 02:45:44;;;;;;;13.53;6.53;;;13.80;99.90;;;;;;5051637;28;20201;-68
2022/10/30 02:48:11;;;;;;;14.10;6.73;;;13.80;99.90;;;;;;5050620;28;20651;-68
2022/10/30 02:50:38;;;;;;;15.47;6.77;;;13.80;99.90;;;;;;5051496;28;20221;-68
2022/10/30 02:53:04;;;;;;;12.10;6.17;;;13.80;99.90;;;;;;5051667;28;20206;-69
2022/10/30 02:55:33;;;;;;;12.77;6.53;;;13.70;99.90;;;;;;5048514;28;20206;-68
2022/10/30 02:57:59;;;;;;;10.37;6.27;;;13.70;99.90;;;;;;5051869;28;20659;-68
2022/10/30 03:00:26;;;;;;;14.93;6.80;;;13.70;99.90;;;;;;5051450;28;20236;-68
2022/10/30 03:02:55;;;;;;;10.80;6.47;;;13.70;99.90;;;;;;5051411;28;20207;-68
2022/10/30 03:05:21;;;;;;;11.10;6.03;;;13.70;99.90;;;;;;5051366;28;20616;-67
2022/10/30 03:07:50;;;;;;;14.13;5.67;;;13.70;99.90;;;;;;5051340;28;20212;-68
2022/10/30 03:10:17;;;;;;;13.83;6.13;;;13.60;99.90;;;;;;5049737;28;20222;-67
2022/10/30 03:12:45;;;;;;;13.87;6.40;;;13.60;99.90;;;;;;5051217;28;20215;-69
2022/10/30 03:15:12;;;;;;;11.67;6.23;;;13.60;99.90;;;;;;5051224;28;20559;-68
2022/10/30 03:17:39;;;;;;;9.93;6.30;;;13.60;99.90;;;;;;5051087;28;20651;-67
2022/10/30 03:20:06;;;;;;;15.00;6.47;;;13.60;99.90;;;;;;5051361;28;20197;-67
2022/10/30 03:22:33;;;;;;;10.13;5.90;;;13.60;99.90;;;;;;5051285;28;20210;-68
2022/10/30 03:25:00;;;;;;;12.60;6.67;;;13.60;99.90;;;;;;5051189;28;20207;-69
2022/10/30 03:27:27;;;;;;;14.87;6.80;;;13.60;99.90;;;;;;5051495;28;20202;-68
2022/10/30 03:29:55;;;;;;;11.90;6.53;;;13.60;99.90;;;;;;5051369;28;20225;-68
2022/10/30 03:32:21;;;;;;;11.83;6.70;;;13.50;99.90;;;;;;5050084;28;20208;-68
2022/10/30 03:34:48;;;;;;;13.67;6.50;;;13.50;99.90;;;;;;5051433;28;20236;-69
2022/10/30 03:37:15;;;;;;;11.77;6.40;;;13.50;99.90;;;;;;5051278;28;20559;-68
2022/10/30 03:39:42;;;;;;;13.73;6.60;;;13.50;99.90;;;;;;5051449;28;20559;-68
2022/10/30 03:42:08;;;;;;;10.73;6.33;;;13.50;99.90;;;;;;5048895;28;20210;-67
2022/10/30 03:44:35;;;;;;;10.63;6.40;;;13.50;99.90;;;;;;5051091;28;20205;-68
2022/10/30 03:47:03;;;;;;;11.70;6.73;;;13.50;99.90;;;;;;5050837;28;20237;-69
2022/10/30 03:49:30;;;;;;;14.40;6.30;;;13.50;99.90;;;;;;5050650;28;20316;-68
2022/10/30 03:51:57;;;;;;;11.60;6.27;;;13.50;99.90;;;;;;5050929;28;20217;-68
2022/10/30 03:54:24;;;;;;;17.30;6.20;;;13.50;99.90;;;;;;5051815;28;20230;-68
2022/10/30 03:56:50;;;;;;;10.07;6.07;;;13.50;99.90;;;;;;5053458;28;20592;-68
2022/10/30 03:59:17;;;;;;;8.67;5.80;;;13.40;99.90;;;;;;5054230;28;20564;-69
2022/10/30 04:01:44;;;;;;;13.40;6.30;;;13.40;99.90;;;;;;5054332;28;20545;-67
2022/10/30 04:04:12;;;;;;;11.87;5.73;;;13.40;99.90;;;;;;5053585;28;20213;-76
2022/10/30 04:06:39;;;;;;;8.90;5.40;;;13.40;99.90;;;;;;5054245;28;20594;-68
2022/10/30 04:09:05;;;;;;;16.10;5.90;;;13.40;99.90;;;;;;5054014;28;20689;-67
2022/10/30 04:11:32;;;;;;;11.30;5.93;;;13.40;99.90;;;;;;5052717;28;20213;-67
2022/10/30 04:13:59;;;;;;;12.27;5.23;;;13.40;99.90;;;;;;5054193;28;20205;-68
2022/10/30 04:16:26;;;;;;;10.80;5.50;;;13.40;99.90;;;;;;5053626;28;20205;-67
2022/10/30 04:18:52;;;;;;;13.77;5.77;;;13.40;99.90;;;;;;5053612;28;20206;-69
2022/10/30 04:21:21;;;;;;;11.17;5.07;;;13.40;99.90;;;;;;5053714;28;20202;-67
2022/10/30 04:23:49;;;;;;;17.10;5.93;;;13.40;99.90;;;;;;5053825;28;20212;-67
2022/10/30 04:26:16;;;;;;;12.43;5.40;;;13.40;99.90;;;;;;5052598;28;20228;-69
2022/10/30 04:28:42;;;;;;;9.87;4.87;;;13.40;99.90;;;;;;5053828;28;20225;-69
2022/10/30 04:31:09;;;;;;;7.90;5.20;;;13.30;99.90;;;;;;5053434;28;20229;-68
2022/10/30 04:33:36;;;;;;;8.10;5.10;;;13.30;99.90;;;;;;5053649;28;20202;-70
2022/10/30 04:36:03;;;;;;;10.20;5.30;;;13.30;99.90;;;;;;5052755;28;20217;-68
2022/10/30 04:38:31;;;;;;;12.63;5.40;;;13.30;99.90;;;;;;5051052;28;20624;-69
2022/10/30 04:40:58;;;;;;;10.27;5.07;;;13.30;99.90;;;;;;5050947;28;20828;-68
2022/10/30 04:43:24;;;;;;;8.67;4.80;;;13.30;99.90;;;;;;5053660;28;20570;-68
2022/10/30 04:45:51;;;;;;;7.97;5.03;;;13.30;99.90;;;;;;5053468;28;20209;-68
2022/10/30 04:48:19;;;;;;;12.10;5.27;;;13.30;99.90;;;;;;5053173;28;20241;-68
2022/10/30 04:50:45;;;;;;;11.13;5.17;;;13.30;99.90;;;;;;5053356;28;20232;-68
2022/10/30 04:53:14;;;;;;;9.87;5.07;;;13.30;99.90;;;;;;5052064;28;20205;-67
2022/10/30 04:55:43;;;;;;;9.80;5.33;;;13.30;99.90;;;;;;5033608;28;20213;-68
2022/10/30 04:58:11;;;;;;;10.73;5.03;;;13.30;99.90;;;;;;5039447;28;20683;-69
2022/10/30 05:00:37;;;;;;;9.63;5.00;;;13.30;99.90;;;;;;5053604;28;20217;-68
2022/10/30 05:03:04;;;;;;;9.47;4.90;;;13.30;99.90;;;;;;5052748;28;20209;-68
2022/10/30 05:05:32;;;;;;;9.27;4.47;;;13.30;99.90;;;;;;5053115;28;20208;-69
2022/10/30 05:07:59;;;;;;;8.63;4.20;;;13.30;99.90;;;;;;5051804;28;20209;-68
2022/10/30 05:10:25;;;;;;;8.60;4.50;;;13.40;99.90;;;;;;5053095;28;20232;-67
2022/10/30 05:12:54;;;;;;;14.13;4.50;;;13.40;99.90;;;;;;5052951;28;20216;-68
2022/10/30 05:15:21;;;;;;;10.27;4.60;;;13.40;99.90;;;;;;5052702;28;20209;-69
2022/10/30 05:17:52;;;;;;;12.73;5.00;;;13.40;99.90;;;;;;5052944;28;20215;-69
2022/10/30 05:20:19;;;;;;;7.03;4.30;;;13.40;99.90;;;;;;5052717;28;20186;-69
2022/10/30 05:22:45;;;;;;;9.37;4.17;;;13.40;99.90;;;;;;5052321;28;20201;-69
2022/10/30 05:25:14;;;;;;;7.97;4.50;;;13.40;99.90;;;;;;5052425;28;20308;-68
2022/10/30 05:27:41;;;;;;;9.60;3.90;;;13.40;99.90;;;;;;5050815;28;20243;-68
2022/10/30 05:30:10;;;;;;;10.40;4.10;;;13.30;99.90;;;;;;5052260;28;20221;-71
2022/10/30 05:32:37;;;;;;;7.97;4.43;;;13.40;99.90;;;;;;5052549;28;20204;-69
2022/10/30 05:35:04;;;;;;;7.93;3.90;;;13.30;99.90;;;;;;5052541;28;20208;-69
2022/10/30 05:37:31;;;;;;;13.47;4.20;;;13.30;99.90;;;;;;5052712;28;20202;-68
2022/10/30 05:39:58;;;;;;;12.67;4.73;;;13.30;99.90;;;;;;5051583;28;20773;-68
2022/10/30 05:42:24;;;;;;;9.13;4.40;;;13.30;99.90;;;;;;5052355;28;20206;-69
2022/10/30 05:44:51;;;;;;;9.23;3.80;;;13.40;99.90;;;;;;5052370;28;20209;-69
2022/10/30 05:47:19;;;;;;;9.23;3.73;;;13.40;99.90;;;;;;5052616;28;20240;-68
2022/10/30 05:49:46;;;;;;;9.37;3.93;;;13.40;99.90;;;;;;5052540;28;20220;-69
2022/10/30 05:52:13;;;;;;;6.43;4.00;;;13.40;99.90;;;;;;5052430;28;20205;-70
2022/10/30 05:54:40;;;;;;;10.27;3.73;;;13.40;99.90;;;;;;5051740;28;20209;-68
2022/10/30 05:57:06;;;;;;;11.40;3.60;;;13.40;99.90;;;;;;5051838;28;20201;-68
2022/10/30 05:59:33;;;;;;;7.80;3.83;;;13.30;99.90;;;;;;5052245;28;20236;-70
2022/10/30 06:02:00;;;;;;;8.67;3.77;;;13.30;99.90;;;;;;5051684;28;20197;-70
2022/10/30 06:04:28;;;;;;;8.03;3.77;;;13.30;99.90;;;;;;5052273;28;20208;-69
2022/10/30 06:06:55;;;;;;;8.03;3.77;;;13.30;99.90;;;;;;5052214;28;20659;-69
2022/10/30 06:09:21;;;;;;;7.30;3.90;;;13.30;99.90;;;;;;5051354;28;20628;-70
2022/10/30 06:11:48;;;;;;;6.30;3.80;;;13.30;99.90;;;;;;5051715;28;20222;-70
2022/10/30 06:14:15;;;;;;;7.30;3.87;;;13.30;99.90;;;;;;5050834;28;20217;-69
2022/10/30 06:16:42;;;;;;;7.63;3.67;;;13.30;99.90;;;;;;5050182;28;20208;-70
2022/10/30 06:19:08;;;;;;;11.40;4.00;;;13.30;99.90;;;;;;5050911;28;20796;-70
2022/10/30 06:21:36;;;;;;;10.57;3.87;;;13.30;99.90;;;;;;5051117;28;20619;-69
2022/10/30 06:24:04;;;;;;;6.43;3.10;;;13.30;99.90;;;;;;5048555;28;20227;-69
2022/10/30 06:26:30;;;;;;;9.00;3.73;;;13.30;99.90;;;;;;5050425;28;20697;-70
2022/10/30 06:28:57;;;;;;;8.40;3.27;;;13.30;99.90;;;;;;5050495;28;20201;-69
2022/10/30 06:31:24;;;;;;;7.23;3.27;;;13.30;99.90;;;;;;5047991;28;20220;-69
2022/10/30 06:33:51;;;;;;;9.83;3.37;;;13.30;99.90;;;;;;5050389;28;20224;-69
2022/10/30 06:36:18;;;;;;;8.10;3.27;;;13.30;99.90;;;;;;5050595;28;20193;-68
2022/10/30 06:38:46;;;;;;;6.97;3.43;;;13.30;99.90;;;;;;5046681;28;20311;-69
2022/10/30 06:41:12;;;;;;;9.30;3.57;;;13.40;99.90;;;;;;5051400;28;20210;-70
2022/10/30 06:43:39;;;;;;;7.60;3.27;;;13.30;99.90;;;;;;5050958;28;20198;-70
2022/10/30 06:46:06;;;;;;;8.50;3.37;;;13.40;99.90;;;;;;5051388;28;20204;-70
2022/10/30 06:48:33;;;;;;;7.40;3.47;;;13.40;99.90;;;;;;5049928;28;20241;-69
2022/10/30 06:51:01;;;;;;;8.73;3.10;;;13.30;99.90;;;;;;5049686;28;20225;-68
2022/10/30 06:53:28;;;;;;;11.27;3.50;;;13.40;99.90;;;;;;5051747;28;20578;-70
2022/10/30 06:55:58;;;;;;;8.90;3.17;;;13.40;99.90;;;;;;5049784;28;20870;-69
2022/10/30 06:58:25;;;;;;;8.17;3.40;;;13.40;99.90;;;;;;5051579;28;20216;-70
2022/10/30 07:00:52;;;;;;;6.77;3.50;;;13.30;99.90;;;;;;5044210;28;20201;-70
2022/10/30 07:03:19;;;;;;;6.73;3.37;;;13.30;99.90;;;;;;5049963;28;20213;-69
2022/10/30 07:05:46;;;;;;;15.20;3.83;;;13.30;99.90;;;;;;5051479;28;20208;-68
2022/10/30 07:08:13;;;;;;;11.70;3.27;;;13.20;99.90;;;;;;5049381;28;20220;-69
2022/10/30 07:10:40;;;;;;;5.80;3.27;;;13.30;99.90;;;;;;5049986;28;20217;-70
2022/10/30 07:13:08;;;;;;;7.30;3.50;;;13.30;99.90;;;;;;5044701;28;20239;-69
2022/10/30 07:15:35;;;;;;;10.40;3.37;;;13.30;99.90;;;;;;5051289;28;20205;-69
2022/10/30 07:18:03;;;;;;;7.33;3.20;;;13.30;99.90;;;;;;5050504;28;20213;-69
2022/10/30 07:20:32;;;;;;;7.17;2.90;;;13.30;99.90;;;;;;5051489;28;20680;-69
2022/10/30 07:22:59;;;;;;;8.03;3.00;;;13.30;99.90;;;;;;5050914;28;20202;-69
2022/10/30 07:25:25;;;;;;;6.50;2.70;;;13.20;99.90;;;;;;5048834;28;20784;-69
2022/10/30 07:27:54;;;;;;;7.27;3.20;;;13.30;99.90;;;;;;5049028;28;20778;-70
2022/10/30 07:30:23;;;;;;;9.17;3.23;;;13.20;99.90;;;;;;5054189;28;20291;-69
2022/10/30 07:32:57;;;;;;;4.70;2.73;;;13.30;99.90;;;;;;5054980;28;20235;-69
2022/10/30 07:35:24;;;;;;;7.43;2.90;;;13.20;99.90;;;;;;5054933;28;20197;-69
2022/10/30 07:37:51;;;;;;;8.20;2.67;;;13.20;99.90;;;;;;5054347;28;20574;-69
2022/10/30 07:40:18;;;;;;;5.77;2.80;;;13.20;99.90;;;;;;5053894;28;20689;-69
2022/10/30 07:42:44;;;;;;;4.07;2.47;;;13.20;99.90;;;;;;5052153;28;20205;-69
2022/10/30 07:45:11;;;;;;;7.27;2.67;;;13.20;99.90;;;;;;5055639;28;20223;-68
2022/10/30 07:47:40;;;;;;;5.90;2.60;;;13.20;99.90;;;;;;5054938;28;20237;-70
2022/10/30 07:50:08;;;;;;;6.87;2.73;;;13.10;99.90;;;;;;5055166;28;20272;-72
2022/10/30 07:52:35;;;;;;;6.70;2.20;;;13.00;99.90;;;;;;5054411;28;20220;-70
2022/10/30 07:55:03;;;;;;;6.50;2.23;;;13.10;99.90;;;;;;5052866;28;20655;-70
2022/10/30 07:57:34;;;;;;;7.20;2.57;;;13.10;99.90;;;;;;5053843;28;20202;-69
2022/10/30 08:00:01;;;;;;;5.57;3.23;;;13.20;99.90;;;;;;5054084;28;20209;-70
2022/10/30 08:02:28;;;;;;;6.20;2.10;;;13.30;99.90;;;;;;5054291;28;20198;-69
2022/10/30 08:04:56;;;;;;;6.20;2.43;;;13.30;99.90;;;;;;5054150;28;20202;-71
2022/10/30 08:07:23;;;;;;;7.63;2.23;;;13.20;99.90;;;;;;5054975;28;20634;-70
2022/10/30 08:09:49;;;;;;;6.67;2.53;;;13.30;99.90;;;;;;5054126;28;20960;-73
2022/10/30 08:12:16;;;;;;;4.07;2.20;;;13.30;99.90;;;;;;5051719;28;20230;-72
2022/10/30 08:14:43;;;;;;;5.37;2.60;;;13.20;99.90;;;;;;5054075;28;20297;-71
2022/10/30 08:17:10;;;;;;;6.57;2.47;;;13.30;99.90;;;;;;5054652;28;20629;-70
2022/10/30 08:19:37;;;;;;;6.67;2.40;;;13.30;99.90;;;;;;5053995;28;20205;-71
2022/10/30 08:22:05;;;;;;;6.03;2.37;;;13.30;99.90;;;;;;5054041;28;20201;-69
2022/10/30 08:24:32;;;;;;;4.90;1.90;;;13.30;99.90;;;;;;5053795;28;20210;-70
2022/10/30 08:26:59;;;;;;;8.00;2.17;;;13.30;99.90;;;;;;5053206;28;20216;-69
2022/10/30 08:29:25;;;;;;;7.30;2.03;;;13.30;99.90;;;;;;5054137;28;20213;-69
2022/10/30 08:31:52;;;;;;;5.37;1.87;;;13.40;99.90;;;;;;5054122;28;20233;-70
2022/10/30 08:34:19;;;;;;;6.27;2.20;;;13.40;99.90;;;;;;5054413;28;20560;-71
2022/10/30 08:36:49;;;;;;;5.37;1.90;;;13.40;99.90;;;;;;5053996;28;20991;-70
2022/10/30 08:39:17;;;;;;;7.83;2.00;;;13.40;99.90;;;;;;5051318;28;20206;-69
2022/10/30 08:41:44;;;;;;;7.37;2.20;;;13.30;99.90;;;;;;5052042;28;20491;-72
2022/10/30 08:44:11;;;;;;;7.07;2.10;;;13.30;99.90;;;;;;5050143;28;20210;-72
2022/10/30 08:46:38;;;;;;;5.33;2.00;;;13.30;99.90;;;;;;5043991;28;20213;-68
2022/10/30 08:49:05;;;;;;;5.57;1.90;;;13.30;99.90;;;;;;5053252;28;20217;-70
2022/10/30 08:51:32;;;;;;;4.70;1.90;;;13.30;99.90;;;;;;5052339;28;20657;-69
2022/10/30 08:53:59;;;;;;;4.83;2.23;;;13.30;99.90;;;;;;5053700;28;20205;-70
2022/10/30 08:56:27;;;;;;;4.23;1.90;;;13.30;99.90;;;;;;5052679;28;20659;-69
2022/10/30 08:58:54;;;;;;;5.17;2.40;;;13.40;99.90;;;;;;5053241;28;20272;-70
2022/10/30 09:01:21;;;;;;;8.33;2.63;;;13.40;99.90;;;;;;5053549;28;20535;-70
2022/10/30 09:03:48;;;;;;;8.83;2.30;;;13.50;99.90;;;;;;5053360;28;20708;-70
2022/10/30 09:06:15;;;;;;;5.43;2.10;;;13.50;99.90;;;;;;5053420;28;20647;-71
2022/10/30 09:08:42;;;;;;;5.17;2.27;;;13.50;99.90;;;;;;5053468;28;20610;-70
2022/10/30 09:11:09;;;;;;;6.47;1.90;;;13.60;99.90;;;;;;5053215;28;20251;-69
2022/10/30 09:13:37;;;;;;;7.07;1.87;;;13.60;99.90;;;;;;5048668;28;20303;-72
2022/10/30 09:16:05;;;;;;;4.50;1.80;;;13.60;99.90;;;;;;5050182;28;20783;-69
2022/10/30 09:18:32;;;;;;;3.17;1.83;;;13.70;99.90;;;;;;5053070;28;20656;-69
2022/10/30 09:20:58;;;;;;;5.47;1.87;;;13.60;99.90;;;;;;5051990;28;20229;-69
2022/10/30 09:23:25;;;;;;;6.03;2.00;;;13.60;99.90;;;;;;5053080;28;20205;-69
2022/10/30 09:25:52;;;;;;;8.80;2.10;;;13.60;99.90;;;;;;5052856;28;20206;-69
2022/10/30 09:28:19;;;;;;;6.03;1.90;;;13.60;99.90;;;;;;5052645;28;20210;-71
2022/10/30 09:30:51;;;;;;;6.83;1.87;;;13.60;99.90;;;;;;5053115;28;20201;-71
2022/10/30 09:33:18;;;;;;;5.83;1.50;;;13.70;99.90;;;;;;5051796;28;20182;-71
2022/10/30 09:35:45;;;;;;;7.13;1.93;;;13.70;99.90;;;;;;5047388;28;20202;-71
2022/10/30 09:38:12;;;;;;;8.07;2.50;;;13.80;99.90;;;;;;5050284;28;20202;-69
2022/10/30 09:40:52;;;;;;;8.70;2.30;;;13.80;99.90;;;;;;5050511;28;20248;-70
2022/10/30 09:43:28;;;;;;;6.93;2.57;;;13.80;99.90;;;;;;5048856;28;20193;-68
2022/10/30 09:46:14;;;;;;;8.23;2.63;;;13.70;99.90;;;;;;5048641;28;20217;-70
2022/10/30 09:49:17;;;;;;;7.13;2.10;;;13.80;99.90;;;;;;5048735;28;20229;-70
2022/10/30 09:52:03;;;;;;;5.60;2.37;;;13.80;99.90;;;;;;5041021;28;20233;-70
2022/10/30 09:54:38;;;;;;;4.07;2.00;;;13.80;99.90;;;;;;5049209;28;20204;-72
2022/10/30 09:57:12;;;;;;;7.57;2.30;;;13.80;99.90;;;;;;5048615;28;20220;-72
2022/10/30 09:59:49;;;;;;;5.30;2.00;;;13.80;99.90;;;;;;5047354;28;20197;-70
2022/10/30 10:02:30;;;;;;;7.27;2.47;;;13.80;99.90;;;;;;5049763;28;20209;-70
2022/10/30 10:05:00;;;;;;;6.90;2.13;;;13.90;99.90;;;;;;5032215;28;20194;-70
2022/10/30 10:07:30;;;;;;;9.60;2.30;;;13.90;99.90;;;;;;5051124;28;20201;-72
2022/10/30 10:10:01;;;;;;;4.40;1.80;;;14.00;99.90;;;;;;5052679;28;20205;-70
2022/10/30 10:12:33;;;;;;;4.33;1.70;;;14.00;99.90;;;;;;5052197;28;20209;-72
2022/10/30 10:15:04;;;;;;;6.90;2.10;;;13.90;99.90;;;;;;5051673;28;20570;-72
2022/10/30 10:17:38;;;;;;;3.93;1.90;;;14.00;99.90;;;;;;5052205;28;20643;-71
2022/10/30 10:20:13;;;;;;;6.53;2.83;;;14.00;99.90;;;;;;5034217;28;20202;-72
2022/10/30 10:22:45;;;;;;;5.13;2.07;;;14.00;99.90;;;;;;5052264;28;20186;-71
2022/10/30 10:25:15;;;;;;;7.07;2.13;;;14.10;99.90;;;;;;5052099;28;20216;-79
2022/10/30 10:27:54;;;;;;;4.77;2.07;;;14.00;99.90;;;;;;5052556;28;20208;-78
2022/10/30 10:30:22;;;;;;;4.90;2.20;;;14.00;99.90;;;;;;5052693;28;20209;-77
2022/10/30 10:33:14;;;;;;;4.83;2.10;;;14.10;99.90;;;;;;5060257;28;20236;-71
2022/10/30 10:36:05;;;;;;;6.63;1.97;;;14.10;99.90;;;;;;5072071;28;20205;-71
2022/10/30 10:38:49;;;;;;;6.03;1.90;;;14.00;99.90;;;;;;5069228;28;20208;-72
2022/10/30 10:41:23;;;;;;;4.27;1.80;;;14.00;99.90;;;;;;5032004;28;20213;-74
2022/10/30 10:44:02;;;;;;;4.70;1.60;;;14.00;99.90;;;;;;5032011;28;20190;-71
2022/10/30 10:46:42;;;;;;;9.20;2.10;;;14.00;99.90;;;;;;5031734;28;20229;-71
2022/10/30 10:49:23;;;;;;;12.37;2.07;;;14.00;99.90;;;;;;5050325;28;20201;-71
2022/10/30 10:51:54;;;;;;;5.60;2.03;;;14.00;99.90;;;;;;5051858;28;20594;-71
2022/10/30 10:54:25;;;;;;;3.43;1.70;;;13.90;99.90;;;;;;5049495;28;20212;-71
2022/10/30 10:56:52;;;;;;;4.23;1.97;;;13.90;99.90;;;;;;5053470;28;20201;-71
2022/10/30 10:59:23;;;;;;;6.27;2.10;;;13.90;99.90;;;;;;5070837;28;20212;-71
2022/10/30 11:01:57;;;;;;;7.83;1.90;;;13.90;99.90;;;;;;5058814;28;20193;-73
2022/10/30 11:04:31;;;;;;;5.60;1.77;;;14.00;99.90;;;;;;5054415;28;20235;-72
2022/10/30 11:07:02;;;;;;;4.03;2.10;;;14.00;99.90;;;;;;5055080;28;20294;-73
2022/10/30 11:09:28;;;;;;;4.97;1.80;;;14.10;99.90;;;;;;5055717;28;20616;-71
2022/10/30 11:11:55;;;;;;;6.47;2.00;;;14.10;99.90;;;;;;5055230;28;20229;-71
2022/10/30 11:14:24;;;;;;;7.27;2.07;;;14.10;99.90;;;;;;5071355;28;20570;-72
2022/10/30 11:17:00;;;;;;;4.80;2.10;;;14.10;99.90;;;;;;5063890;28;20258;-71
2022/10/30 11:19:30;;;;;;;6.50;2.00;;;14.20;99.90;;;;;;5055763;28;20548;-71
2022/10/30 11:21:58;;;;;;;8.43;2.30;;;14.10;99.90;;;;;;5055158;28;20216;-71
2022/10/30 11:24:30;;;;;;;5.57;1.97;;;14.10;99.90;;;;;;5055767;28;20205;-72
2022/10/30 11:26:58;;;;;;;6.17;2.07;;;14.10;99.90;;;;;;5055094;28;20331;-70
2022/10/30 11:29:27;;;;;;;7.10;2.33;;;14.20;99.90;;;;;;5053287;28;20201;-71
2022/10/30 11:32:01;;;;;;;4.40;2.13;;;14.20;99.90;;;;;;5055414;28;20221;-71
2022/10/30 11:34:36;;;;;;;9.20;2.33;;;14.20;99.90;;;;;;5055274;28;20286;-70
2022/10/30 11:37:04;;;;;;;11.63;2.43;;;14.20;99.90;;;;;;5054726;28;20235;-70
2022/10/30 11:39:33;;;;;;;5.33;2.23;;;14.20;99.90;;;;;;5055090;28;20616;-71
2022/10/30 11:42:06;;;;;;;5.50;2.50;;;14.30;99.90;;;;;;5054453;28;20197;-72
2022/10/30 11:44:40;;;;;;;6.03;2.43;;;14.30;99.90;;;;;;5055273;28;20205;-72
2022/10/30 11:47:08;;;;;;;6.20;2.47;;;14.40;99.90;;;;;;5054745;28;20268;-70
2022/10/30 11:49:48;;;;;;;5.43;2.23;;;14.40;99.90;;;;;;5059302;28;20535;-70
2022/10/30 11:52:18;;;;;;;6.50;2.03;;;14.30;99.90;;;;;;5052649;28;20236;-72
2022/10/30 11:54:48;;;;;;;4.23;1.80;;;14.30;99.90;;;;;;5051845;28;20198;-73
2022/10/30 11:57:22;;;;;;;8.37;2.30;;;14.20;99.90;;;;;;5053322;28;20212;-72
2022/10/30 11:59:50;;;;;;;4.17;2.10;;;14.20;99.90;;;;;;5052594;28;20641;-74
2022/10/30 12:02:25;;;;;;;6.30;2.90;;;14.20;99.90;;;;;;5054654;28;20620;-71
2022/10/30 12:04:54;;;;;;;5.33;2.10;;;14.20;99.90;;;;;;5053336;28;20185;-72
2022/10/30 12:07:28;;;;;;;5.37;1.93;;;14.20;99.90;;;;;;5054292;28;20208;-72
2022/10/30 12:09:56;;;;;;;7.50;2.73;;;14.20;99.90;;;;;;5053067;28;20605;-71
2022/10/30 12:12:27;;;;;;;7.80;2.47;;;14.20;99.90;;;;;;5052935;28;20589;-71
2022/10/30 12:14:54;;;;;;;7.70;2.47;;;14.20;99.90;;;;;;5049234;28;20235;-71
2022/10/30 12:17:22;;;;;;;6.03;2.10;;;14.20;99.90;;;;;;5053991;28;20205;-72
2022/10/30 12:19:51;;;;;;;9.10;2.50;;;14.30;99.90;;;;;;5054253;28;20217;-73
2022/10/30 12:22:40;;;;;;;6.33;2.10;;;14.20;99.90;;;;;;5054348;28;20237;-71
2022/10/30 12:25:23;;;;;;;7.27;2.20;;;14.30;99.90;;;;;;5051090;28;20235;-70
2022/10/30 12:27:57;;;;;;;5.03;2.13;;;14.30;99.90;;;;;;5054246;28;20196;-70
2022/10/30 12:30:25;;;;;;;6.53;2.10;;;14.30;99.90;;;;;;5054650;28;20194;-70
2022/10/30 12:33:00;;;;;;;4.57;2.60;;;14.30;99.90;;;;;;5054381;28;20236;-73
2022/10/30 12:35:39;;;;;;;7.00;2.23;;;14.30;99.90;;;;;;5054369;28;20197;-71
2022/10/30 12:38:15;;;;;;;4.87;1.93;;;14.30;99.90;;;;;;5053796;28;20189;-70
2022/10/30 12:40:47;;;;;;;3.87;2.00;;;14.20;99.90;;;;;;5054098;28;20280;-69
2022/10/30 12:43:20;;;;;;;5.63;2.30;;;14.20;99.90;;;;;;5053676;28;20181;-70
2022/10/30 12:45:49;;;;;;;5.10;2.37;;;14.20;99.90;;;;;;5053831;28;20193;-71
2022/10/30 12:48:24;;;;;;;6.03;1.90;;;14.30;99.90;;;;;;5053718;28;20248;-72
2022/10/30 12:51:02;;;;;;;5.07;1.90;;;14.20;99.90;;;;;;5053807;28;20193;-72
2022/10/30 12:53:38;;;;;;;4.27;1.80;;;14.20;99.90;;;;;;5053636;28;20671;-72